RKTN/TAE METAR and TAF weather

Enter ICAO airport designator
Station Type Date Time Source
RKTN METAR 2019/06/27 08:00 UTC NOAA

RKTN 270800Z 31005KT 9999 SCT025 BKN035 BKN080 29/22 Q0998


Station Type Date Time Source
RKTN Decoded METAR 2019/06/27 08:00 UTC NOAA

Taegu Ab, Korea, South (RKTN) 35-54N 128-39E 37M
Jun 27, 2019 - 04:00 AM EDT / 2019.06.27 0800 UTC
Wind: from the NW (310 degrees) at 6 MPH (5 KT):0
Visibility: greater than 7 mile(s):0
Sky conditions: mostly cloudy
Temperature: 84 F (29 C)
Dew Point: 71 F (22 C)
Relative Humidity: 65%
Pressure (altimeter): 29.47 in. Hg (0998 hPa)
ob: RKTN 270800Z 31005KT 9999 SCT025 BKN035 BKN080 29/22 Q0998
cycle: 8

Station Type Date Time Source
RKTN TAF 2019/06/27 06:45 UTC NOAA

TAF
AMD TAF
AMD RKTN 270535Z 2706/2812 30006KT 9999 BKN030 TN20/2721Z TX30/2806Z

Example: see airport list